sensor_id;sensor_type;location;lat;lon;timestamp;pressure;altitude;pressure_sealevel;temperature;humidity
58239;BME280;44037;55.638;37.356;2023-04-15T00:01:00;100244.31;;;1.62;26.58
58239;BME280;44037;55.638;37.356;2023-04-15T00:03:27;100254.44;;;1.61;26.92
58239;BME280;44037;55.638;37.356;2023-04-15T00:05:55;100263.84;;;1.62;27.61
58239;BME280;44037;55.638;37.356;2023-04-15T00:08:23;100251.97;;;1.62;27.08
58239;BME280;44037;55.638;37.356;2023-04-15T00:10:51;100269.88;;;1.62;27.32
58239;BME280;44037;55.638;37.356;2023-04-15T00:13:18;100258.56;;;1.59;27.05
58239;BME280;44037;55.638;37.356;2023-04-15T00:15:46;100267.56;;;1.52;27.25
58239;BME280;44037;55.638;37.356;2023-04-15T00:18:13;100271.63;;;1.48;27.82
58239;BME280;44037;55.638;37.356;2023-04-15T00:20:40;100285.91;;;1.45;26.99
58239;BME280;44037;55.638;37.356;2023-04-15T00:23:07;100284.88;;;1.41;26.71
58239;BME280;44037;55.638;37.356;2023-04-15T00:25:35;100279.59;;;1.38;27.99
58239;BME280;44037;55.638;37.356;2023-04-15T00:28:03;100280.63;;;1.42;27.64
58239;BME280;44037;55.638;37.356;2023-04-15T00:30:30;100290.16;;;1.44;27.81
58239;BME280;44037;55.638;37.356;2023-04-15T00:32:58;100277.47;;;1.46;27.33
58239;BME280;44037;55.638;37.356;2023-04-15T00:35:25;100273.06;;;1.43;27.82
58239;BME280;44037;55.638;37.356;2023-04-15T00:37:52;100292.59;;;1.43;27.52
58239;BME280;44037;55.638;37.356;2023-04-15T00:40:20;100276.50;;;1.44;27.43
58239;BME280;44037;55.638;37.356;2023-04-15T00:42:50;100296.06;;;1.43;27.34
58239;BME280;44037;55.638;37.356;2023-04-15T00:45:18;100291.81;;;1.44;28.06
58239;BME280;44037;55.638;37.356;2023-04-15T00:47:45;100281.78;;;1.47;27.48
58239;BME280;44037;55.638;37.356;2023-04-15T00:50:12;100293.41;;;1.42;27.33
58239;BME280;44037;55.638;37.356;2023-04-15T00:52:39;100300.00;;;1.38;27.12
58239;BME280;44037;55.638;37.356;2023-04-15T00:55:07;100301.59;;;1.36;27.89
58239;BME280;44037;55.638;37.356;2023-04-15T00:57:36;100307.41;;;1.33;27.50
58239;BME280;44037;55.638;37.356;2023-04-15T01:00:05;100319.38;;;1.34;27.23
58239;BME280;44037;55.638;37.356;2023-04-15T01:02:34;100312.16;;;1.27;27.17
58239;BME280;44037;55.638;37.356;2023-04-15T01:05:02;100304.22;;;1.22;27.56
58239;BME280;44037;55.638;37.356;2023-04-15T01:07:29;100313.59;;;1.22;27.30
58239;BME280;44037;55.638;37.356;2023-04-15T01:09:57;100316.94;;;1.21;27.15
58239;BME280;44037;55.638;37.356;2023-04-15T01:12:25;100321.84;;;1.18;27.48
58239;BME280;44037;55.638;37.356;2023-04-15T01:14:53;100336.31;;;1.17;27.67
58239;BME280;44037;55.638;37.356;2023-04-15T01:17:23;100324.13;;;1.13;27.95
58239;BME280;44037;55.638;37.356;2023-04-15T01:19:51;100325.63;;;1.10;28.08
58239;BME280;44037;55.638;37.356;2023-04-15T01:22:18;100333.38;;;1.11;28.13
58239;BME280;44037;55.638;37.356;2023-04-15T01:24:53;100320.59;;;1.11;27.59
58239;BME280;44037;55.638;37.356;2023-04-15T01:27:23;100317.78;;;1.06;27.78
58239;BME280;44037;55.638;37.356;2023-04-15T01:29:50;100339.78;;;1.04;27.78
58239;BME280;44037;55.638;37.356;2023-04-15T01:32:17;100341.38;;;1.02;27.26
58239;BME280;44037;55.638;37.356;2023-04-15T01:35:03;100342.69;;;0.96;28.39
58239;BME280;44037;55.638;37.356;2023-04-15T01:37:47;100358.78;;;0.95;28.02
58239;BME280;44037;55.638;37.356;2023-04-15T01:40:15;100361.31;;;0.95;27.96
58239;BME280;44037;55.638;37.356;2023-04-15T01:42:45;100356.84;;;0.90;28.04
58239;BME280;44037;55.638;37.356;2023-04-15T01:45:13;100355.16;;;0.91;28.40
58239;BME280;44037;55.638;37.356;2023-04-15T01:47:42;100357.72;;;0.91;28.83
58239;BME280;44037;55.638;37.356;2023-04-15T01:50:11;100356.34;;;0.96;28.36
58239;BME280;44037;55.638;37.356;2023-04-15T01:52:39;100363.19;;;0.97;28.36
58239;BME280;44037;55.638;37.356;2023-04-15T01:55:09;100353.66;;;0.95;28.20
58239;BME280;44037;55.638;37.356;2023-04-15T01:57:37;100367.25;;;0.94;28.75
58239;BME280;44037;55.638;37.356;2023-04-15T02:00:08;100368.91;;;0.93;28.60
58239;BME280;44037;55.638;37.356;2023-04-15T02:02:37;100377.34;;;0.92;28.65
58239;BME280;44037;55.638;37.356;2023-04-15T02:05:06;100373.66;;;0.87;28.35
58239;BME280;44037;55.638;37.356;2023-04-15T02:07:34;100377.41;;;0.79;28.66
58239;BME280;44037;55.638;37.356;2023-04-15T02:10:03;100381.53;;;0.76;28.19
58239;BME280;44037;55.638;37.356;2023-04-15T02:12:31;100386.47;;;0.73;28.50
58239;BME280;44037;55.638;37.356;2023-04-15T02:15:00;100390.59;;;0.71;28.83
58239;BME280;44037;55.638;37.356;2023-04-15T02:17:29;100395.69;;;0.71;28.95
58239;BME280;44037;55.638;37.356;2023-04-15T02:20:01;100401.50;;;0.69;28.69
58239;BME280;44037;55.638;37.356;2023-04-15T02:22:31;100393.66;;;0.66;28.92
58239;BME280;44037;55.638;37.356;2023-04-15T02:24:59;100402.16;;;0.66;28.78
58239;BME280;44037;55.638;37.356;2023-04-15T02:27:28;100404.72;;;0.66;28.87
58239;BME280;44037;55.638;37.356;2023-04-15T02:29:56;100403.06;;;0.67;29.47
58239;BME280;44037;55.638;37.356;2023-04-15T02:32:24;100407.47;;;0.69;29.49
58239;BME280;44037;55.638;37.356;2023-04-15T02:34:54;100400.00;;;0.72;29.07
58239;BME280;44037;55.638;37.356;2023-04-15T02:37:22;100416.88;;;0.70;29.44
58239;BME280;44037;55.638;37.356;2023-04-15T02:39:53;100411.84;;;0.72;29.45
58239;BME280;44037;55.638;37.356;2023-04-15T02:42:21;100417.25;;;0.76;29.60
58239;BME280;44037;55.638;37.356;2023-04-15T02:44:53;100432.16;;;0.84;29.54
58239;BME280;44037;55.638;37.356;2023-04-15T02:47:22;100417.13;;;0.88;29.71
58239;BME280;44037;55.638;37.356;2023-04-15T02:49:50;100428.38;;;0.92;28.75
58239;BME280;44037;55.638;37.356;2023-04-15T02:52:20;100423.09;;;0.89;28.71
58239;BME280;44037;55.638;37.356;2023-04-15T02:54:48;100431.44;;;0.86;28.79
58239;BME280;44037;55.638;37.356;2023-04-15T02:57:16;100435.97;;;0.90;29.46
58239;BME280;44037;55.638;37.356;2023-04-15T02:59:45;100441.25;;;0.94;29.24
58239;BME280;44037;55.638;37.356;2023-04-15T03:02:13;100435.34;;;0.95;28.80
58239;BME280;44037;55.638;37.356;2023-04-15T03:04:41;100441.41;;;0.97;28.81
58239;BME280;44037;55.638;37.356;2023-04-15T03:07:09;100431.13;;;0.95;28.58
58239;BME280;44037;55.638;37.356;2023-04-15T03:09:39;100434.66;;;0.97;29.01
58239;BME280;44037;55.638;37.356;2023-04-15T03:12:07;100445.22;;;1.03;28.77
58239;BME280;44037;55.638;37.356;2023-04-15T03:14:36;100441.38;;;1.10;28.56
58239;BME280;44037;55.638;37.356;2023-04-15T03:17:04;100441.75;;;1.16;28.41
58239;BME280;44037;55.638;37.356;2023-04-15T03:19:32;100433.56;;;1.22;28.67
58239;BME280;44037;55.638;37.356;2023-04-15T03:22:00;100447.47;;;1.27;28.43
58239;BME280;44037;55.638;37.356;2023-04-15T03:24:29;100448.91;;;1.37;28.11
58239;BME280;44037;55.638;37.356;2023-04-15T03:26:58;100445.75;;;1.41;28.49
58239;BME280;44037;55.638;37.356;2023-04-15T03:29:27;100448.50;;;1.44;27.87
58239;BME280;44037;55.638;37.356;2023-04-15T03:31:56;100461.53;;;1.49;28.63
58239;BME280;44037;55.638;37.356;2023-04-15T03:34:24;100466.13;;;1.55;27.80
58239;BME280;44037;55.638;37.356;2023-04-15T03:36:52;100468.03;;;1.59;27.85
58239;BME280;44037;55.638;37.356;2023-04-15T03:39:21;100468.41;;;1.65;28.18
58239;BME280;44037;55.638;37.356;2023-04-15T03:41:51;100473.88;;;1.71;28.07
58239;BME280;44037;55.638;37.356;2023-04-15T03:44:21;100476.00;;;1.78;27.72
58239;BME280;44037;55.638;37.356;2023-04-15T03:46:49;100460.16;;;1.84;28.25
58239;BME280;44037;55.638;37.356;2023-04-15T03:49:18;100465.69;;;1.92;28.01
58239;BME280;44037;55.638;37.356;2023-04-15T03:51:48;100471.59;;;2.06;28.14
58239;BME280;44037;55.638;37.356;2023-04-15T03:54:17;100465.56;;;2.20;28.18
58239;BME280;44037;55.638;37.356;2023-04-15T03:56:45;100476.31;;;2.29;27.92
58239;BME280;44037;55.638;37.356;2023-04-15T03:59:13;100471.72;;;2.39;27.53
58239;BME280;44037;55.638;37.356;2023-04-15T04:01:43;100465.66;;;2.53;28.03
58239;BME280;44037;55.638;37.356;2023-04-15T04:04:12;100460.34;;;2.65;27.62
58239;BME280;44037;55.638;37.356;2023-04-15T04:06:40;100455.66;;;2.73;27.01
58239;BME280;44037;55.638;37.356;2023-04-15T04:09:08;100470.38;;;2.77;26.83
58239;BME280;44037;55.638;37.356;2023-04-15T04:11:37;100475.09;;;2.86;26.67
58239;BME280;44037;55.638;37.356;2023-04-15T04:14:05;100482.47;;;2.96;26.27
58239;BME280;44037;55.638;37.356;2023-04-15T04:16:33;100485.28;;;3.01;26.37
58239;BME280;44037;55.638;37.356;2023-04-15T04:19:03;100485.59;;;3.07;26.67
58239;BME280;44037;55.638;37.356;2023-04-15T04:21:32;100471.44;;;3.14;26.60
58239;BME280;44037;55.638;37.356;2023-04-15T04:24:01;100483.06;;;3.23;27.15
58239;BME280;44037;55.638;37.356;2023-04-15T04:26:29;100488.88;;;3.37;26.31
58239;BME280;44037;55.638;37.356;2023-04-15T04:28:57;100499.06;;;3.52;26.12
58239;BME280;44037;55.638;37.356;2023-04-15T04:31:26;100478.22;;;3.63;26.28
58239;BME280;44037;55.638;37.356;2023-04-15T04:33:54;100501.28;;;3.63;25.24
58239;BME280;44037;55.638;37.356;2023-04-15T04:36:24;100493.09;;;3.53;25.32
58239;BME280;44037;55.638;37.356;2023-04-15T04:38:53;100493.53;;;3.45;25.11
58239;BME280;44037;55.638;37.356;2023-04-15T04:41:21;100497.38;;;3.36;25.32
58239;BME280;44037;55.638;37.356;2023-04-15T04:43:49;100492.41;;;3.23;25.53
58239;BME280;44037;55.638;37.356;2023-04-15T04:46:18;100504.72;;;3.14;25.40
58239;BME280;44037;55.638;37.356;2023-04-15T04:48:46;100500.22;;;3.10;25.47
58239;BME280;44037;55.638;37.356;2023-04-15T04:51:14;100493.44;;;3.10;25.82
58239;BME280;44037;55.638;37.356;2023-04-15T04:53:44;100490.25;;;3.14;25.97
58239;BME280;44037;55.638;37.356;2023-04-15T04:56:12;100505.22;;;3.23;26.13
58239;BME280;44037;55.638;37.356;2023-04-15T04:58:41;100499.22;;;3.39;26.39
58239;BME280;44037;55.638;37.356;2023-04-15T05:01:09;100501.47;;;3.49;25.42
58239;BME280;44037;55.638;37.356;2023-04-15T05:03:38;100498.09;;;3.50;25.87
58239;BME280;44037;55.638;37.356;2023-04-15T05:06:06;100491.66;;;3.59;25.86
58239;BME280;44037;55.638;37.356;2023-04-15T05:08:35;100493.72;;;3.66;25.33
58239;BME280;44037;55.638;37.356;2023-04-15T05:11:05;100491.66;;;3.59;24.91
58239;BME280;44037;55.638;37.356;2023-04-15T05:13:33;100501.53;;;3.51;25.76
58239;BME280;44037;55.638;37.356;2023-04-15T05:16:05;100500.56;;;3.49;25.41
58239;BME280;44037;55.638;37.356;2023-04-15T05:18:33;100505.06;;;3.53;26.18
58239;BME280;44037;55.638;37.356;2023-04-15T05:21:02;100502.72;;;3.74;26.06
58239;BME280;44037;55.638;37.356;2023-04-15T05:23:31;100510.28;;;3.89;25.36
58239;BME280;44037;55.638;37.356;2023-04-15T05:25:59;100501.38;;;3.99;25.60
58239;BME280;44037;55.638;37.356;2023-04-15T05:28:29;100518.31;;;4.13;24.83
58239;BME280;44037;55.638;37.356;2023-04-15T05:30:57;100512.44;;;4.16;24.51
58239;BME280;44037;55.638;37.356;2023-04-15T05:33:25;100510.03;;;4.19;25.52
58239;BME280;44037;55.638;37.356;2023-04-15T05:35:54;100519.50;;;4.20;24.83
58239;BME280;44037;55.638;37.356;2023-04-15T05:38:22;100520.88;;;4.13;24.92
58239;BME280;44037;55.638;37.356;2023-04-15T05:40:51;100521.16;;;4.20;25.16
58239;BME280;44037;55.638;37.356;2023-04-15T05:43:19;100511.50;;;4.32;25.46
58239;BME280;44037;55.638;37.356;2023-04-15T05:45:49;100520.75;;;4.46;25.47
58239;BME280;44037;55.638;37.356;2023-04-15T05:48:17;100509.72;;;4.67;24.87
58239;BME280;44037;55.638;37.356;2023-04-15T05:50:46;100515.00;;;4.88;25.91
58239;BME280;44037;55.638;37.356;2023-04-15T05:53:15;100514.59;;;4.99;25.28
58239;BME280;44037;55.638;37.356;2023-04-15T05:55:43;100519.13;;;5.04;24.69
58239;BME280;44037;55.638;37.356;2023-04-15T05:58:11;100523.41;;;5.04;24.44
58239;BME280;44037;55.638;37.356;2023-04-15T06:00:40;100522.25;;;4.97;24.01
58239;BME280;44037;55.638;37.356;2023-04-15T06:03:09;100523.44;;;4.86;23.76
58239;BME280;44037;55.638;37.356;2023-04-15T06:05:38;100521.13;;;4.92;23.78
58239;BME280;44037;55.638;37.356;2023-04-15T06:08:07;100510.06;;;4.93;24.56
58239;BME280;44037;55.638;37.356;2023-04-15T06:10:35;100530.91;;;4.99;24.89
58239;BME280;44037;55.638;37.356;2023-04-15T06:13:04;100520.91;;;5.05;24.68
58239;BME280;44037;55.638;37.356;2023-04-15T06:15:33;100534.53;;;5.04;24.59
58239;BME280;44037;55.638;37.356;2023-04-15T06:18:01;100522.19;;;4.96;24.31
58239;BME280;44037;55.638;37.356;2023-04-15T06:20:31;100524.00;;;4.98;24.53
58239;BME280;44037;55.638;37.356;2023-04-15T06:22:59;100507.19;;;5.05;24.46
58239;BME280;44037;55.638;37.356;2023-04-15T06:25:27;100522.94;;;5.13;24.84
58239;BME280;44037;55.638;37.356;2023-04-15T06:27:56;100516.84;;;5.30;24.34
58239;BME280;44037;55.638;37.356;2023-04-15T06:30:24;100522.81;;;5.49;23.78
58239;BME280;44037;55.638;37.356;2023-04-15T06:32:54;100530.78;;;5.55;23.85
58239;BME280;44037;55.638;37.356;2023-04-15T06:35:22;100539.63;;;5.41;22.68
58239;BME280;44037;55.638;37.356;2023-04-15T06:37:52;100534.44;;;5.21;23.63
58239;BME280;44037;55.638;37.356;2023-04-15T06:40:20;100539.06;;;5.28;23.81
58239;BME280;44037;55.638;37.356;2023-04-15T06:42:48;100543.72;;;5.37;23.49
58239;BME280;44037;55.638;37.356;2023-04-15T06:45:17;100539.31;;;5.34;24.14
58239;BME280;44037;55.638;37.356;2023-04-15T06:47:45;100539.31;;;5.34;23.89
58239;BME280;44037;55.638;37.356;2023-04-15T06:50:14;100548.13;;;5.40;23.60
58239;BME280;44037;55.638;37.356;2023-04-15T06:52:42;100557.19;;;5.51;23.25
58239;BME280;44037;55.638;37.356;2023-04-15T06:55:12;100554.06;;;5.58;23.91
58239;BME280;44037;55.638;37.356;2023-04-15T06:57:40;100548.88;;;5.57;24.20
58239;BME280;44037;55.638;37.356;2023-04-15T07:00:10;100544.69;;;5.59;23.93
58239;BME280;44037;55.638;37.356;2023-04-15T07:02:39;100547.78;;;5.71;24.46
58239;BME280;44037;55.638;37.356;2023-04-15T07:05:08;100554.75;;;5.74;23.76
58239;BME280;44037;55.638;37.356;2023-04-15T07:07:36;100543.69;;;5.76;24.05
58239;BME280;44037;55.638;37.356;2023-04-15T07:10:05;100543.97;;;5.82;24.02
58239;BME280;44037;55.638;37.356;2023-04-15T07:12:35;100544.38;;;5.92;23.52
58239;BME280;44037;55.638;37.356;2023-04-15T07:15:05;100541.13;;;5.96;23.29
58239;BME280;44037;55.638;37.356;2023-04-15T07:17:33;100542.41;;;6.06;23.31
58239;BME280;44037;55.638;37.356;2023-04-15T07:20:02;100541.03;;;6.14;23.57
58239;BME280;44037;55.638;37.356;2023-04-15T07:22:30;100538.59;;;6.17;22.47
58239;BME280;44037;55.638;37.356;2023-04-15T07:24:59;100539.03;;;5.87;21.75
58239;BME280;44037;55.638;37.356;2023-04-15T07:27:28;100536.88;;;5.57;22.76
58239;BME280;44037;55.638;37.356;2023-04-15T07:29:58;100545.97;;;5.49;23.31
58239;BME280;44037;55.638;37.356;2023-04-15T07:32:27;100554.28;;;5.43;22.02
58239;BME280;44037;55.638;37.356;2023-04-15T07:35:02;100539.19;;;5.31;22.43
58239;BME280;44037;55.638;37.356;2023-04-15T07:37:31;100534.66;;;5.26;23.39
58239;BME280;44037;55.638;37.356;2023-04-15T07:40:10;100546.28;;;5.37;22.98
58239;BME280;44037;55.638;37.356;2023-04-15T07:42:41;100532.97;;;5.46;21.94
58239;BME280;44037;55.638;37.356;2023-04-15T07:45:18;100550.19;;;5.48;21.68
58239;BME280;44037;55.638;37.356;2023-04-15T07:47:48;100543.25;;;5.26;21.22
58239;BME280;44037;55.638;37.356;2023-04-15T07:50:18;100552.97;;;5.14;21.87
58239;BME280;44037;55.638;37.356;2023-04-15T07:52:47;100543.69;;;4.98;21.72
58239;BME280;44037;55.638;37.356;2023-04-15T07:55:16;100556.16;;;4.90;21.59
58239;BME280;44037;55.638;37.356;2023-04-15T07:57:46;100565.63;;;4.73;21.61
58239;BME280;44037;55.638;37.356;2023-04-15T08:00:17;100548.69;;;4.76;21.83
58239;BME280;44037;55.638;37.356;2023-04-15T08:02:46;100551.91;;;4.90;21.84
58239;BME280;44037;55.638;37.356;2023-04-15T08:05:14;100545.56;;;5.02;21.39
58239;BME280;44037;55.638;37.356;2023-04-15T08:07:42;100542.97;;;5.20;21.67
58239;BME280;44037;55.638;37.356;2023-04-15T08:10:11;100529.66;;;5.29;22.07
58239;BME280;44037;55.638;37.356;2023-04-15T08:12:39;100529.44;;;5.44;22.25
58239;BME280;44037;55.638;37.356;2023-04-15T08:15:09;100540.88;;;5.70;22.52
58239;BME280;44037;55.638;37.356;2023-04-15T08:17:40;100525.75;;;5.97;21.69
58239;BME280;44037;55.638;37.356;2023-04-15T08:20:09;100524.84;;;6.17;21.75
58239;BME280;44037;55.638;37.356;2023-04-15T08:22:38;100542.59;;;6.32;21.19
58239;BME280;44037;55.638;37.356;2023-04-15T08:25:07;100535.94;;;6.37;21.38
58239;BME280;44037;55.638;37.356;2023-04-15T08:27:36;100531.75;;;6.39;20.97
58239;BME280;44037;55.638;37.356;2023-04-15T08:30:05;100537.25;;;6.48;20.38
58239;BME280;44037;55.638;37.356;2023-04-15T08:32:34;100543.09;;;6.44;19.98
58239;BME280;44037;55.638;37.356;2023-04-15T08:35:09;100540.16;;;6.35;20.43
58239;BME280;44037;55.638;37.356;2023-04-15T08:37:37;100528.22;;;6.37;20.34
58239;BME280;44037;55.638;37.356;2023-04-15T08:40:09;100534.50;;;6.43;20.98
58239;BME280;44037;55.638;37.356;2023-04-15T08:42:43;100519.38;;;6.51;20.53
58239;BME280;44037;55.638;37.356;2023-04-15T08:45:20;100525.94;;;6.66;20.57
58239;BME280;44037;55.638;37.356;2023-04-15T08:47:54;100534.72;;;6.71;20.14
58239;BME280;44037;55.638;37.356;2023-04-15T08:50:30;100532.31;;;6.75;20.38
58239;BME280;44037;55.638;37.356;2023-04-15T08:53:02;100526.25;;;6.96;20.23
58239;BME280;44037;55.638;37.356;2023-04-15T08:55:35;100519.25;;;7.16;20.29
58239;BME280;44037;55.638;37.356;2023-04-15T08:58:04;100521.91;;;7.42;19.98
58239;BME280;44037;55.638;37.356;2023-04-15T09:00:36;100528.91;;;7.46;18.97
58239;BME280;44037;55.638;37.356;2023-04-15T09:03:07;100523.00;;;7.25;19.16
58239;BME280;44037;55.638;37.356;2023-04-15T09:05:43;100537.34;;;7.18;19.19
58239;BME280;44037;55.638;37.356;2023-04-15T09:08:12;100518.78;;;7.27;19.67
58239;BME280;44037;55.638;37.356;2023-04-15T09:10:41;100512.69;;;7.49;20.36
58239;BME280;44037;55.638;37.356;2023-04-15T09:13:09;100518.72;;;7.74;20.30
58239;BME280;44037;55.638;37.356;2023-04-15T09:15:38;100541.59;;;7.89;18.71
58239;BME280;44037;55.638;37.356;2023-04-15T09:18:07;100530.28;;;7.85;19.19
58239;BME280;44037;55.638;37.356;2023-04-15T09:20:39;100530.16;;;7.82;19.05
58239;BME280;44037;55.638;37.356;2023-04-15T09:23:13;100521.53;;;7.81;19.08
58239;BME280;44037;55.638;37.356;2023-04-15T09:25:44;100520.00;;;7.87;19.20
58239;BME280;44037;55.638;37.356;2023-04-15T09:28:12;100516.38;;;8.07;20.00
58239;BME280;44037;55.638;37.356;2023-04-15T09:30:42;100520.56;;;8.29;19.15
58239;BME280;44037;55.638;37.356;2023-04-15T09:33:13;100516.75;;;8.45;18.69
58239;BME280;44037;55.638;37.356;2023-04-15T09:35:55;100510.25;;;8.57;19.38
58239;BME280;44037;55.638;37.356;2023-04-15T09:38:26;100529.31;;;8.60;17.54
58239;BME280;44037;55.638;37.356;2023-04-15T09:40:55;100504.78;;;8.48;18.32
58239;BME280;44037;55.638;37.356;2023-04-15T09:43:37;100516.09;;;8.51;18.53
58239;BME280;44037;55.638;37.356;2023-04-15T09:46:07;100515.13;;;8.48;17.90
58239;BME280;44037;55.638;37.356;2023-04-15T09:48:39;100514.41;;;8.52;18.42
58239;BME280;44037;55.638;37.356;2023-04-15T09:51:09;100528.56;;;8.37;17.58
58239;BME280;44037;55.638;37.356;2023-04-15T09:53:43;100513.38;;;8.21;18.60
58239;BME280;44037;55.638;37.356;2023-04-15T09:56:16;100511.00;;;8.27;18.24
58239;BME280;44037;55.638;37.356;2023-04-15T09:58:44;100503.84;;;8.45;18.83
58239;BME280;44037;55.638;37.356;2023-04-15T10:01:16;100504.41;;;8.63;18.43
58239;BME280;44037;55.638;37.356;2023-04-15T10:03:46;100498.72;;;8.74;17.81
58239;BME280;44037;55.638;37.356;2023-04-15T10:06:17;100508.72;;;8.91;18.69
58239;BME280;44037;55.638;37.356;2023-04-15T10:08:48;100497.34;;;9.15;18.78
58239;BME280;44037;55.638;37.356;2023-04-15T10:11:18;100502.34;;;9.41;18.21
58239;BME280;44037;55.638;37.356;2023-04-15T10:13:52;100501.66;;;9.46;17.31
58239;BME280;44037;55.638;37.356;2023-04-15T10:16:25;100502.59;;;9.50;17.17
58239;BME280;44037;55.638;37.356;2023-04-15T10:18:56;100512.97;;;9.51;17.15
58239;BME280;44037;55.638;37.356;2023-04-15T10:21:27;100506.47;;;9.34;17.16
58239;BME280;44037;55.638;37.356;2023-04-15T10:24:01;100507.09;;;9.25;17.63
58239;BME280;44037;55.638;37.356;2023-04-15T10:26:30;100507.34;;;9.34;17.41
58239;BME280;44037;55.638;37.356;2023-04-15T10:29:01;100491.81;;;9.34;17.58
58239;BME280;44037;55.638;37.356;2023-04-15T10:31:31;100501.53;;;9.42;17.50
58239;BME280;44037;55.638;37.356;2023-04-15T10:34:03;100503.63;;;9.55;17.51
58239;BME280;44037;55.638;37.356;2023-04-15T10:36:38;100505.69;;;9.36;16.83
58239;BME280;44037;55.638;37.356;2023-04-15T10:39:44;100489.09;;;9.28;17.62
58239;BME280;44037;55.638;37.356;2023-04-15T10:42:17;100488.50;;;9.38;16.71
58239;BME280;44037;55.638;37.356;2023-04-15T10:44:50;100486.97;;;9.45;17.02
58239;BME280;44037;55.638;37.356;2023-04-15T10:47:22;100490.69;;;9.55;17.23
58239;BME280;44037;55.638;37.356;2023-04-15T10:49:56;100487.31;;;9.59;17.35
58239;BME280;44037;55.638;37.356;2023-04-15T10:52:29;100501.59;;;9.77;16.98
58239;BME280;44037;55.638;37.356;2023-04-15T10:55:12;100484.78;;;9.94;17.21
58239;BME280;44037;55.638;37.356;2023-04-15T10:57:42;100483.34;;;10.06;16.91
58239;BME280;44037;55.638;37.356;2023-04-15T11:00:12;100500.78;;;10.14;16.61
58239;BME280;44037;55.638;37.356;2023-04-15T11:02:43;100493.84;;;10.12;16.59
58239;BME280;44037;55.638;37.356;2023-04-15T11:05:13;100492.13;;;10.12;16.50
58239;BME280;44037;55.638;37.356;2023-04-15T11:07:50;100495.56;;;10.11;16.54
58239;BME280;44037;55.638;37.356;2023-04-15T11:10:51;100488.75;;;10.15;16.53
58239;BME280;44037;55.638;37.356;2023-04-15T11:13:23;100499.41;;;10.27;16.52
58239;BME280;44037;55.638;37.356;2023-04-15T11:16:01;100488.38;;;10.36;15.30
58239;BME280;44037;55.638;37.356;2023-04-15T11:18:31;100477.19;;;10.37;16.43
58239;BME280;44037;55.638;37.356;2023-04-15T11:21:02;100488.50;;;10.39;15.92
58239;BME280;44037;55.638;37.356;2023-04-15T11:23:36;100473.78;;;10.38;16.34
58239;BME280;44037;55.638;37.356;2023-04-15T11:26:07;100480.94;;;10.49;16.00
58239;BME280;44037;55.638;37.356;2023-04-15T11:28:39;100474.38;;;10.65;16.47
58239;BME280;44037;55.638;37.356;2023-04-15T11:31:09;100476.50;;;10.84;15.99
58239;BME280;44037;55.638;37.356;2023-04-15T11:33:45;100471.72;;;11.03;16.02
58239;BME280;44037;55.638;37.356;2023-04-15T11:36:13;100465.03;;;11.14;16.28
58239;BME280;44037;55.638;37.356;2023-04-15T11:38:42;100467.69;;;11.17;16.00
58239;BME280;44037;55.638;37.356;2023-04-15T11:41:13;100461.97;;;11.34;16.31
58239;BME280;44037;55.638;37.356;2023-04-15T11:43:41;100461.38;;;11.49;15.55
58239;BME280;44037;55.638;37.356;2023-04-15T11:46:09;100461.59;;;11.61;16.21
58239;BME280;44037;55.638;37.356;2023-04-15T11:48:41;100459.81;;;11.59;15.10
58239;BME280;44037;55.638;37.356;2023-04-15T11:51:10;100461.22;;;11.41;15.85
58239;BME280;44037;55.638;37.356;2023-04-15T11:53:41;100447.94;;;11.24;15.98
58239;BME280;44037;55.638;37.356;2023-04-15T11:56:10;100460.81;;;11.19;15.66
58239;BME280;44037;55.638;37.356;2023-04-15T11:58:43;100454.06;;;11.29;15.56
58239;BME280;44037;55.638;37.356;2023-04-15T12:01:11;100456.81;;;11.37;15.47
58239;BME280;44037;55.638;37.356;2023-04-15T12:03:40;100446.72;;;11.06;15.59
58239;BME280;44037;55.638;37.356;2023-04-15T12:06:13;100442.88;;;10.87;15.65
58239;BME280;44037;55.638;37.356;2023-04-15T12:09:00;100445.34;;;10.81;15.76
58239;BME280;44037;55.638;37.356;2023-04-15T12:11:45;100448.06;;;10.87;15.83
58239;BME280;44037;55.638;37.356;2023-04-15T12:14:20;100443.84;;;10.93;15.95
58239;BME280;44037;55.638;37.356;2023-04-15T12:16:50;100435.09;;;10.86;15.97
58239;BME280;44037;55.638;37.356;2023-04-15T12:19:23;100435.16;;;10.89;16.00
58239;BME280;44037;55.638;37.356;2023-04-15T12:21:57;100437.69;;;10.87;16.24
58239;BME280;44037;55.638;37.356;2023-04-15T12:24:25;100440.88;;;10.74;15.78
58239;BME280;44037;55.638;37.356;2023-04-15T12:26:53;100456.13;;;10.58;15.55
58239;BME280;44037;55.638;37.356;2023-04-15T12:29:26;100428.19;;;10.47;16.62
58239;BME280;44037;55.638;37.356;2023-04-15T12:31:54;100445.56;;;10.51;16.44
58239;BME280;44037;55.638;37.356;2023-04-15T12:34:26;100442.34;;;10.63;16.32
58239;BME280;44037;55.638;37.356;2023-04-15T12:36:54;100453.78;;;10.71;16.53
58239;BME280;44037;55.638;37.356;2023-04-15T12:39:23;100460.66;;;10.69;15.96
58239;BME280;44037;55.638;37.356;2023-04-15T12:41:50;100445.69;;;10.57;17.22
58239;BME280;44037;55.638;37.356;2023-04-15T12:44:17;100439.84;;;10.66;17.93
58239;BME280;44037;55.638;37.356;2023-04-15T12:46:47;100447.78;;;10.73;17.06
58239;BME280;44037;55.638;37.356;2023-04-15T12:49:14;100436.50;;;10.70;16.90
58239;BME280;44037;55.638;37.356;2023-04-15T12:51:44;100439.75;;;10.61;16.43
58239;BME280;44037;55.638;37.356;2023-04-15T12:54:11;100429.41;;;10.63;17.37
58239;BME280;44037;55.638;37.356;2023-04-15T12:56:38;100439.19;;;10.76;17.52
58239;BME280;44037;55.638;37.356;2023-04-15T12:59:05;100433.25;;;10.80;16.30
58239;BME280;44037;55.638;37.356;2023-04-15T13:01:33;100432.31;;;10.78;17.21